Airport ID:KDWA
Update Time (UTC):30/07/2021 11:37
Wind Speed (Knots):2
Wind Direction (Magnetic):140
Temperature (°C):19
Dew Point (°C):13
Humidity (%):68
Altimeter (inHg):29.81
Density Altitude (Feet):
Visibility:10+
Clouds (Hundreds of feet):OVC070
Present Weather:
METAR:METAR KDWA 301135Z AUTO 00000KT 10SM OVC070 19/13 A2981 RMK AO2

The data displayed is for advisory purposes only and is not to be used for flight planning or operations.